METAR Data
IDs: Format: Raw Decoded Include TAF

Data at: 0519 UTC 26 Sep 2018

KPIA 260454Z 32011G20KT 10SM OVC017 16/13 A3001 RMK AO2 SLP159 T01560128
KPIA 260354Z 31012G19KT 10SM OVC016 17/14 A2999 RMK AO2 SLP152 T01720144
KPIA 260342Z 33008G16KT 10SM OVC016 17/15 A2999 RMK AO2 T01720150
KPIA 260313Z 31013G22KT 10SM BKN012 BKN022 OVC028 18/16 A2997 RMK AO2 T01830161
KPIA 260254Z 34011G23KT 10SM SCT014 OVC022 18/16 A2996 RMK AO2 SLP142 60001 T01830161 53033
KPIA 260245Z 31010G19KT 10SM BKN014 OVC020 19/17 A2995 RMK AO2 T01890167
KPIA 260223Z VRB03KT 10SM BKN016 19/17 A2994 RMK AO2 T01940172
KPIA 260154Z 32005KT 10SM CLR 19/18 A2992 RMK AO2 SLP127 T01940178
KPIA 260126Z 32008G17KT 10SM SCT020 BKN090 21/18 A2990 RMK AO2 T02060178
KPIA 260054Z 29007KT 10SM FEW017 BKN022 OVC100 21/19 A2989 RMK AO2 RAB2359E42 SLP119 P0001 T02110189
KPIA 252354Z 28008KT 10SM BKN065 22/19 A2986 RMK AO2 LTG DSNT SE SLP107 60001 T02170189 10294 20211 53020
KPIA 252254Z 29005KT 10SM FEW039 SCT047 BKN060 22/19 A2984 RMK AO2 RAB14E42 SLP100 P0001 T02170194
KPIA 252154Z 23012KT 10SM FEW080 BKN100 28/19 A2980 RMK AO2 LTG DSNT NW-NE SLP086 T02780189
KPIA 252054Z 23011KT 10SM BKN090 BKN110 28/19 A2980 RMK AO2 SLP085 T02830194 56025
KPIA 251954Z 23014G22KT 10SM CLR 29/19 A2981 RMK AO2 SLP088 T02940194
KPIA 251854Z 22008KT 10SM FEW065 FEW090 28/19 A2985 RMK AO2 SLP103 T02830194
KPIA 251754Z 20011G19KT 10SM FEW030 FEW039 BKN080 28/20 A2987 RMK AO2 SLP111 T02780200 10278 20206 58013
KPIA 251654Z 22009KT 10SM FEW025 FEW029 OVC080 25/20 A2989 RMK AO2 SLP117 T02500200
KPIA 251554Z 21006KT 10SM FEW019 OVC080 24/20 A2990 RMK AO2 SLP121 T02390200
KPIA 251504Z 18009KT 10SM SCT016 24/21 A2991 RMK AO2 T02390206
KPIA 251454Z 21005KT 10SM SCT012 BKN018 BKN032 23/21 A2992 RMK AO2 SLP126 T02280206 50001
KPIA 251448Z 19005KT 10SM SCT010 BKN018 BKN034 22/20 A2992 RMK AO2
KPIA 251436Z 18006KT 10SM BKN009 BKN015 BKN036 23/21 A2992 RMK AO2 CIG 006V014 T02280206
KPIA 251409Z 18005KT 8SM SCT008 SCT024 BKN036 22/21 A2993 RMK AO2 T02170206
KPIA 251353Z 19006KT 9SM BKN007 BKN024 BKN038 22/21 A2993 RMK AO2 CIG 005V012 SLP131 T02170206
KPIA 251352Z 20006KT 9SM BKN007 BKN024 BKN038 22/21 A2993 RMK AO2 CIG 005V012
KPIA 251254Z 00000KT 3SM BR SCT003 BKN047 BKN060 21/21 A2992 RMK AO2 SLP128 T02110206
KPIA 251250Z 08005KT 3SM BR SCT003 BKN047 OVC060 21/21 A2991 RMK AO2
KPIA 251210Z 22004KT 2SM BR BKN003 OVC045 21/21 A2991 RMK AO2 T02060206
KPIA 251154Z 23003KT 2SM BR FEW003 OVC045 21/21 A2991 RMK AO2 SLP125 60002 70002 T02110206 10217 20206 50002
KPIA 251151Z 23004KT 2SM BR FEW003 OVC045 21/21 A2991 RMK AO2
KPIA 251140Z 22004KT 5SM BR FEW003 SCT007 OVC045 21/21 A2991 RMK AO2 T02110206
KPIA 251131Z 22003KT 5SM BR SCT003 BKN019 OVC047 21/21 A2991 RMK AO2 T02110206
KPIA 251054Z 23004KT 5SM BR BKN004 OVC041 21/21 A2991 RMK AO2 RAB04E14 SLP124 P0000 T02110206
KPIA 250954Z 24004KT 6SM BR BKN004 OVC030 21/21 A2991 RMK AO2 RAB33E47 SLP123 P0000 T02110206
KPIA 250938Z 24005KT 5SM -RA BR BKN004 OVC030 21/21 A2990 RMK AO2 RAB33 P0000 T02110206
KPIA 250901Z 22006KT 6SM BR BKN006 BKN020 OVC025 21/21 A2990 RMK AO2 CIG 003V009 T02110206
KPIA 250854Z 20005KT 6SM BR SCT006 BKN011 OVC024 21/21 A2990 RMK AO2 RAE10 SLP121 P0001 60002 T02060206 57000
KPIA 250836Z 23004KT 6SM BR SCT006 BKN010 OVC024 21/21 A2990 RMK AO2 RAE10 CIG 007V013 P0001 T02060206
KPIA 250754Z 22005KT 6SM -RA BR OVC007 21/21 A2990 RMK AO2 RAE21B53 CIG 005V010 SLP122 P0001 T02110206
KPIA 250716Z 22004KT 5SM -RA BR BKN008 OVC039 21/21 A2990 RMK AO2 P0001 T02110206
KPIA 250704Z 21006KT 6SM -RA BR SCT008 BKN014 OVC027 21/21 A2990 RMK AO2 P0001 T02110206
KPIA 250654Z 20006KT 5SM -RA BR SCT010 BKN015 OVC023 22/20 A2990 RMK AO2 RAB51 SLP121 P0000 T02170200
KPIA 250554Z 19006KT 10SM BKN015 OVC020 22/19 A2990 RMK AO2 SLP122 60000 T02170194 10233 20217 402500133 58003
KPIA 250545Z 18006KT 10SM BKN017 BKN023 OVC047 22/19 A2990 RMK AO2 T02170194
KPIA 250454Z 18007KT 10SM BKN045 BKN055 OVC075 22/19 A2991 RMK AO2 SLP123 T02170194
KPIA 250354Z 18007KT 10SM FEW027 BKN055 OVC075 22/19 A2991 RMK AO2 SLP125 T02220189
KPIA 250322Z 17008KT 10SM SCT029 OVC050 23/19 A2991 RMK AO2 T02280189
KPIA 250254Z 17007KT 10SM BKN029 OVC034 23/19 A2991 RMK AO2 SLP126 60000 T02280189 52006
KPIA 250203Z 16006KT 10SM BKN029 BKN037 OVC045 23/19 A2991 RMK AO2 T02280189
KPIA 250154Z 17006KT 10SM SCT027 BKN035 OVC042 23/19 A2991 RMK AO2 RAE01 SLP125 P0000 T02280189
KPIA 250054Z 12003KT 10SM -RA OVC028 23/19 A2990 RMK AO2 RAB08E19B51 SLP121 P0000 T02280189
KPIA 250041Z 11003KT 10SM BKN030 OVC035 23/19 A2990 RMK AO2 RAB08E19 P0000 T02280189
KPIA 250001Z 00000KT 10SM BKN027 OVC033 23/18 A2989 RMK AO2 T02330183
KPIA 242354Z 11003KT 10SM OVC030 23/18 A2989 RMK AO2 SLP120 T02330183 10250 20206 55002
KPIA 242254Z 13003KT 10SM OVC039 24/18 A2989 RMK AO2 SLP119 T02390183
KPIA 242154Z AUTO 14004KT 10SM BKN035 24/18 A2989 RMK AO2 SLP119 T02440178
KPIA 242054Z 13006KT 10SM BKN031 24/17 A2990 RMK AO2 SLP121 T02390172 56029
KPIA 241954Z 13005KT 10SM BKN033 24/17 A2991 RMK AO2 SLP126 T02390172
KPIA 241914Z 09006KT 10SM FEW021 OVC031 22/17 A2993 RMK AO2 T02220172
KPIA 241854Z 15005KT 10SM SCT017 BKN025 OVC029 21/17 A2995 RMK AO2 SLP139 T02110172
KPIA 241754Z 12004KT 10SM OVC016 21/16 A2999 RMK AO2 SLP153 T02060161 10206 20139 56013